sensor_id;sensor_type;location;lat;lon;timestamp;pressure;altitude;pressure_sealevel;temperature;humidity
44027;BME280;29696;55.698;37.460;2023-04-10T00:00:51;100415.94;;;9.43;43.83
44027;BME280;29696;55.698;37.460;2023-04-10T00:03:23;100412.53;;;9.41;43.52
44027;BME280;29696;55.698;37.460;2023-04-10T00:05:49;100412.84;;;9.36;44.11
44027;BME280;29696;55.698;37.460;2023-04-10T00:08:15;100413.47;;;9.52;43.65
44027;BME280;29696;55.698;37.460;2023-04-10T00:10:42;100407.97;;;9.55;43.88
44027;BME280;29696;55.698;37.460;2023-04-10T00:13:08;100408.59;;;9.59;43.24
44027;BME280;29696;55.698;37.460;2023-04-10T00:15:34;100404.09;;;9.48;43.32
44027;BME280;29696;55.698;37.460;2023-04-10T00:18:01;100415.16;;;9.53;43.03
44027;BME280;29696;55.698;37.460;2023-04-10T00:20:27;100409.88;;;9.53;43.12
44027;BME280;29696;55.698;37.460;2023-04-10T00:22:53;100417.78;;;9.53;43.24
44027;BME280;29696;55.698;37.460;2023-04-10T00:25:20;100425.06;;;9.63;45.24
44027;BME280;29696;55.698;37.460;2023-04-10T00:27:48;100436.13;;;9.68;45.94
44027;BME280;29696;55.698;37.460;2023-04-10T00:30:14;100437.00;;;9.55;45.78
44027;BME280;29696;55.698;37.460;2023-04-10T00:32:41;100434.16;;;9.58;46.62
44027;BME280;29696;55.698;37.460;2023-04-10T00:35:08;100437.75;;;9.57;46.48
44027;BME280;29696;55.698;37.460;2023-04-10T00:37:35;100436.69;;;9.47;47.30
44027;BME280;29696;55.698;37.460;2023-04-10T00:40:03;100436.81;;;9.46;47.24
44027;BME280;29696;55.698;37.460;2023-04-10T00:42:29;100437.25;;;9.40;47.43
44027;BME280;29696;55.698;37.460;2023-04-10T00:44:57;100428.59;;;9.37;47.53
44027;BME280;29696;55.698;37.460;2023-04-10T00:47:24;100432.59;;;9.43;47.42
44027;BME280;29696;55.698;37.460;2023-04-10T00:49:50;100429.75;;;9.46;47.06
44027;BME280;29696;55.698;37.460;2023-04-10T00:52:17;100425.09;;;9.37;46.83
44027;BME280;29696;55.698;37.460;2023-04-10T00:54:43;100424.16;;;9.38;46.99
44027;BME280;29696;55.698;37.460;2023-04-10T00:57:10;100428.88;;;9.33;45.56
44027;BME280;29696;55.698;37.460;2023-04-10T00:59:38;100421.09;;;9.31;46.68
44027;BME280;29696;55.698;37.460;2023-04-10T01:02:04;100415.69;;;9.33;47.53
44027;BME280;29696;55.698;37.460;2023-04-10T01:04:31;100414.97;;;9.31;46.68
44027;BME280;29696;55.698;37.460;2023-04-10T01:10:33;100418.47;;;9.31;46.39
44027;BME280;29696;55.698;37.460;2023-04-10T01:13:07;100417.31;;;9.23;47.12
44027;BME280;29696;55.698;37.460;2023-04-10T01:15:45;100410.78;;;9.16;47.66
44027;BME280;29696;55.698;37.460;2023-04-10T01:19:19;100419.41;;;9.30;46.86
44027;BME280;29696;55.698;37.460;2023-04-10T01:21:23;100419.72;;;9.26;47.34
44027;BME280;29696;55.698;37.460;2023-04-10T01:27:24;100427.63;;;9.38;46.55
44027;BME280;29696;55.698;37.460;2023-04-10T01:29:56;100422.78;;;9.32;47.11
44027;BME280;29696;55.698;37.460;2023-04-10T01:32:26;100424.25;;;9.36;46.87
44027;BME280;29696;55.698;37.460;2023-04-10T01:34:54;100425.50;;;9.44;47.62
44027;BME280;29696;55.698;37.460;2023-04-10T01:37:29;100427.41;;;9.54;47.16
44027;BME280;29696;55.698;37.460;2023-04-10T01:40:04;100442.59;;;9.64;47.18
44027;BME280;29696;55.698;37.460;2023-04-10T01:42:39;100432.47;;;9.57;46.20
44027;BME280;29696;55.698;37.460;2023-04-10T01:45:11;100440.25;;;9.59;47.09
44027;BME280;29696;55.698;37.460;2023-04-10T01:47:39;100430.25;;;9.64;46.85
44027;BME280;29696;55.698;37.460;2023-04-10T01:50:06;100436.88;;;9.70;47.00
44027;BME280;29696;55.698;37.460;2023-04-10T01:52:34;100437.09;;;9.67;46.10
44027;BME280;29696;55.698;37.460;2023-04-10T01:55:14;100429.63;;;9.60;46.28
44027;BME280;29696;55.698;37.460;2023-04-10T01:57:48;100430.09;;;9.78;45.93
44027;BME280;29696;55.698;37.460;2023-04-10T02:00:15;100429.41;;;9.38;46.72
44027;BME280;29696;55.698;37.460;2023-04-10T02:02:42;100433.53;;;9.29;46.71
44027;BME280;29696;55.698;37.460;2023-04-10T02:05:09;100444.00;;;9.31;47.26
44027;BME280;29696;55.698;37.460;2023-04-10T02:07:57;100447.25;;;9.47;47.85
44027;BME280;29696;55.698;37.460;2023-04-10T02:10:35;100436.16;;;9.42;47.48
44027;BME280;29696;55.698;37.460;2023-04-10T02:13:06;100436.09;;;9.31;47.44
44027;BME280;29696;55.698;37.460;2023-04-10T02:15:35;100440.09;;;9.36;47.52
44027;BME280;29696;55.698;37.460;2023-04-10T02:18:07;100438.16;;;9.38;47.21
44027;BME280;29696;55.698;37.460;2023-04-10T02:20:35;100436.38;;;9.39;47.15
44027;BME280;29696;55.698;37.460;2023-04-10T02:23:02;100435.53;;;9.38;47.42
44027;BME280;29696;55.698;37.460;2023-04-10T02:25:31;100434.69;;;9.38;47.51
44027;BME280;29696;55.698;37.460;2023-04-10T02:28:07;100436.91;;;9.44;47.73
44027;BME280;29696;55.698;37.460;2023-04-10T02:30:34;100435.44;;;9.40;47.68
44027;BME280;29696;55.698;37.460;2023-04-10T02:33:00;100425.81;;;9.39;47.68
44027;BME280;29696;55.698;37.460;2023-04-10T02:35:29;100439.25;;;9.49;47.76
44027;BME280;29696;55.698;37.460;2023-04-10T02:37:55;100439.44;;;9.58;47.12
44027;BME280;29696;55.698;37.460;2023-04-10T02:40:22;100436.16;;;9.55;47.57
44027;BME280;29696;55.698;37.460;2023-04-10T02:43:01;100431.94;;;9.52;47.55
44027;BME280;29696;55.698;37.460;2023-04-10T02:45:28;100433.75;;;9.52;47.90
44027;BME280;29696;55.698;37.460;2023-04-10T02:47:55;100438.91;;;9.53;48.24
44027;BME280;29696;55.698;37.460;2023-04-10T02:50:21;100436.16;;;9.42;48.92
44027;BME280;29696;55.698;37.460;2023-04-10T02:52:48;100443.84;;;9.45;49.95
44027;BME280;29696;55.698;37.460;2023-04-10T02:55:14;100441.44;;;9.42;50.84
44027;BME280;29696;55.698;37.460;2023-04-10T02:57:41;100442.31;;;9.43;51.85
44027;BME280;29696;55.698;37.460;2023-04-10T03:00:09;100445.97;;;9.53;52.17
44027;BME280;29696;55.698;37.460;2023-04-10T03:02:59;100439.66;;;9.43;52.60
44027;BME280;29696;55.698;37.460;2023-04-10T03:05:30;100436.38;;;9.39;53.22
44027;BME280;29696;55.698;37.460;2023-04-10T03:07:57;100436.81;;;9.33;53.79
44027;BME280;29696;55.698;37.460;2023-04-10T03:10:23;100437.22;;;9.27;54.02
44027;BME280;29696;55.698;37.460;2023-04-10T03:12:50;100441.44;;;9.29;54.28
44027;BME280;29696;55.698;37.460;2023-04-10T03:15:16;100437.22;;;9.27;54.34
44027;BME280;29696;55.698;37.460;2023-04-10T03:17:43;100432.69;;;9.29;55.35
44027;BME280;29696;55.698;37.460;2023-04-10T03:20:10;100433.13;;;9.23;55.25
44027;BME280;29696;55.698;37.460;2023-04-10T03:22:36;100425.09;;;9.24;55.60
44027;BME280;29696;55.698;37.460;2023-04-10T03:25:03;100427.94;;;9.21;55.83
44027;BME280;29696;55.698;37.460;2023-04-10T03:27:30;100421.63;;;9.24;56.42
44027;BME280;29696;55.698;37.460;2023-04-10T03:29:59;100430.69;;;9.20;56.82
44027;BME280;29696;55.698;37.460;2023-04-10T03:32:29;100430.06;;;9.16;56.85
44027;BME280;29696;55.698;37.460;2023-04-10T03:34:57;100432.16;;;9.11;57.39
44027;BME280;29696;55.698;37.460;2023-04-10T03:37:24;100433.97;;;9.10;57.58
44027;BME280;29696;55.698;37.460;2023-04-10T03:39:52;100426.81;;;9.12;57.48
44027;BME280;29696;55.698;37.460;2023-04-10T03:42:19;100423.09;;;9.15;57.00
44027;BME280;29696;55.698;37.460;2023-04-10T03:44:46;100432.72;;;9.16;57.43
44027;BME280;29696;55.698;37.460;2023-04-10T03:47:12;100419.72;;;9.26;58.13
44027;BME280;29696;55.698;37.460;2023-04-10T03:49:42;100413.72;;;9.36;57.63
44027;BME280;29696;55.698;37.460;2023-04-10T03:52:10;100411.91;;;9.37;56.91
44027;BME280;29696;55.698;37.460;2023-04-10T03:54:37;100419.09;;;9.35;57.12
44027;BME280;29696;55.698;37.460;2023-04-10T03:57:04;100416.78;;;9.30;56.06
44027;BME280;29696;55.698;37.460;2023-04-10T03:59:30;100418.44;;;9.44;56.17
44027;BME280;29696;55.698;37.460;2023-04-10T04:01:56;100420.44;;;9.53;55.95
44027;BME280;29696;55.698;37.460;2023-04-10T04:04:23;100415.03;;;9.68;54.76
44027;BME280;29696;55.698;37.460;2023-04-10T04:07:09;100411.22;;;9.96;50.75
44027;BME280;29696;55.698;37.460;2023-04-10T04:09:55;100408.22;;;10.13;50.14
44027;BME280;29696;55.698;37.460;2023-04-10T04:12:38;100413.25;;;10.29;49.87
44027;BME280;29696;55.698;37.460;2023-04-10T04:15:27;100411.00;;;10.36;52.42
44027;BME280;29696;55.698;37.460;2023-04-10T04:18:17;100411.63;;;10.39;54.67
44027;BME280;29696;55.698;37.460;2023-04-10T04:20:47;100411.94;;;10.35;55.47
44027;BME280;29696;55.698;37.460;2023-04-10T04:23:34;100412.13;;;10.44;54.83
44027;BME280;29696;55.698;37.460;2023-04-10T04:26:20;100402.53;;;10.55;53.72
44027;BME280;29696;55.698;37.460;2023-04-10T04:29:03;100404.75;;;10.72;53.47
44027;BME280;29696;55.698;37.460;2023-04-10T04:31:41;100402.72;;;10.76;53.47
44027;BME280;29696;55.698;37.460;2023-04-10T04:34:32;100408.84;;;10.76;53.70
44027;BME280;29696;55.698;37.460;2023-04-10T04:37:31;100409.06;;;10.73;54.41
44027;BME280;29696;55.698;37.460;2023-04-10T04:40:20;100411.03;;;10.82;54.26
44027;BME280;29696;55.698;37.460;2023-04-10T04:43:16;100404.78;;;10.83;54.41
44027;BME280;29696;55.698;37.460;2023-04-10T04:46:05;100407.34;;;10.96;54.00
44027;BME280;29696;55.698;37.460;2023-04-10T04:49:09;100411.09;;;11.16;52.85
44027;BME280;29696;55.698;37.460;2023-04-10T04:51:49;100407.47;;;11.39;53.18
44027;BME280;29696;55.698;37.460;2023-04-10T04:54:34;100409.41;;;11.60;52.91
44027;BME280;29696;55.698;37.460;2023-04-10T04:57:36;100413.63;;;11.85;52.56
44027;BME280;29696;55.698;37.460;2023-04-10T05:00:23;100417.34;;;11.94;53.56
44027;BME280;29696;55.698;37.460;2023-04-10T05:02:59;100421.41;;;11.98;53.06
44027;BME280;29696;55.698;37.460;2023-04-10T05:05:53;100421.91;;;12.03;53.52
44027;BME280;29696;55.698;37.460;2023-04-10T05:08:27;100420.19;;;12.13;53.17
44027;BME280;29696;55.698;37.460;2023-04-10T05:11:01;100425.53;;;12.34;52.93
44027;BME280;29696;55.698;37.460;2023-04-10T05:13:46;100431.91;;;12.64;52.19
44027;BME280;29696;55.698;37.460;2023-04-10T05:16:33;100429.91;;;12.98;52.19
44027;BME280;29696;55.698;37.460;2023-04-10T05:19:18;100425.38;;;13.31;50.13
44027;BME280;29696;55.698;37.460;2023-04-10T05:22:04;100424.91;;;13.46;49.09
44027;BME280;29696;55.698;37.460;2023-04-10T05:25:03;100426.88;;;13.54;48.75
44027;BME280;29696;55.698;37.460;2023-04-10T05:28:01;100433.09;;;13.64;48.60
44027;BME280;29696;55.698;37.460;2023-04-10T05:30:47;100429.47;;;13.75;48.10
44027;BME280;29696;55.698;37.460;2023-04-10T05:33:39;100429.94;;;13.90;47.33
44027;BME280;29696;55.698;37.460;2023-04-10T05:36:26;100428.16;;;14.20;47.23
44027;BME280;29696;55.698;37.460;2023-04-10T05:39:27;100428.03;;;14.50;46.20
44027;BME280;29696;55.698;37.460;2023-04-10T05:42:19;100421.97;;;15.16;44.49
44027;BME280;29696;55.698;37.460;2023-04-10T05:44:59;100429.06;;;15.25;44.52
44027;BME280;29696;55.698;37.460;2023-04-10T05:47:43;100434.78;;;15.40;44.73
44027;BME280;29696;55.698;37.460;2023-04-10T05:50:39;100433.28;;;15.28;44.17
44027;BME280;29696;55.698;37.460;2023-04-10T05:53:32;100439.59;;;15.27;43.94
44027;BME280;29696;55.698;37.460;2023-04-10T05:56:26;100432.31;;;15.29;43.57
44027;BME280;29696;55.698;37.460;2023-04-10T05:59:11;100433.41;;;15.36;43.92
44027;BME280;29696;55.698;37.460;2023-04-10T06:01:56;100443.69;;;15.68;43.48
44027;BME280;29696;55.698;37.460;2023-04-10T06:04:23;100445.06;;;15.25;43.17
44027;BME280;29696;55.698;37.460;2023-04-10T06:06:52;100442.25;;;15.27;43.06
44027;BME280;29696;55.698;37.460;2023-04-10T06:09:18;100438.47;;;15.29;43.08
44027;BME280;29696;55.698;37.460;2023-04-10T06:11:45;100434.97;;;15.29;42.56
44027;BME280;29696;55.698;37.460;2023-04-10T06:14:18;100439.09;;;15.51;43.03
44027;BME280;29696;55.698;37.460;2023-04-10T06:16:45;100446.75;;;15.64;42.28
44027;BME280;29696;55.698;37.460;2023-04-10T06:19:12;100445.88;;;15.73;42.27
44027;BME280;29696;55.698;37.460;2023-04-10T06:21:38;100440.91;;;15.88;41.95
44027;BME280;29696;55.698;37.460;2023-04-10T06:24:04;100442.84;;;15.95;40.78
44027;BME280;29696;55.698;37.460;2023-04-10T06:26:31;100435.91;;;16.03;40.01
44027;BME280;29696;55.698;37.460;2023-04-10T06:28:57;100439.66;;;15.82;39.14
44027;BME280;29696;55.698;37.460;2023-04-10T06:31:24;100439.69;;;15.45;40.21
44027;BME280;29696;55.698;37.460;2023-04-10T06:33:50;100446.50;;;15.20;40.37
44027;BME280;29696;55.698;37.460;2023-04-10T06:36:17;100445.81;;;14.98;41.54
44027;BME280;29696;55.698;37.460;2023-04-10T06:38:47;100447.38;;;14.91;41.87
44027;BME280;29696;55.698;37.460;2023-04-10T06:41:13;100449.50;;;14.88;40.68
44027;BME280;29696;55.698;37.460;2023-04-10T06:43:40;100450.31;;;14.88;39.74
44027;BME280;29696;55.698;37.460;2023-04-10T06:46:06;100456.19;;;14.92;39.22
44027;BME280;29696;55.698;37.460;2023-04-10T06:48:33;100451.84;;;15.00;39.47
44027;BME280;29696;55.698;37.460;2023-04-10T06:50:59;100447.06;;;15.14;39.09
44027;BME280;29696;55.698;37.460;2023-04-10T06:53:26;100452.13;;;15.17;38.79
44027;BME280;29696;55.698;37.460;2023-04-10T06:55:52;100448.59;;;15.16;38.56
44027;BME280;29696;55.698;37.460;2023-04-10T06:58:18;100450.03;;;15.11;38.51
44027;BME280;29696;55.698;37.460;2023-04-10T07:00:45;100451.66;;;15.21;38.37
44027;BME280;29696;55.698;37.460;2023-04-10T07:03:12;100446.00;;;15.34;38.13
44027;BME280;29696;55.698;37.460;2023-04-10T07:05:38;100447.19;;;15.59;37.70
44027;BME280;29696;55.698;37.460;2023-04-10T07:08:04;100448.25;;;15.76;37.18
44027;BME280;29696;55.698;37.460;2023-04-10T07:10:31;100450.78;;;15.78;37.01
44027;BME280;29696;55.698;37.460;2023-04-10T07:12:57;100445.66;;;15.94;36.30
44027;BME280;29696;55.698;37.460;2023-04-10T07:15:24;100447.69;;;16.10;35.97
44027;BME280;29696;55.698;37.460;2023-04-10T07:17:51;100453.75;;;16.02;35.44
44027;BME280;29696;55.698;37.460;2023-04-10T07:20:17;100456.28;;;16.04;35.51
44027;BME280;29696;55.698;37.460;2023-04-10T07:22:43;100455.47;;;15.93;34.92
44027;BME280;29696;55.698;37.460;2023-04-10T07:25:10;100452.50;;;15.69;35.94
44027;BME280;29696;55.698;37.460;2023-04-10T07:27:38;100450.41;;;15.63;36.29
44027;BME280;29696;55.698;37.460;2023-04-10T07:30:05;100451.63;;;15.78;35.75
44027;BME280;29696;55.698;37.460;2023-04-10T07:32:31;100442.94;;;16.04;35.20
44027;BME280;29696;55.698;37.460;2023-04-10T07:34:59;100450.41;;;16.81;33.66
44027;BME280;29696;55.698;37.460;2023-04-10T07:37:26;100445.06;;;17.68;32.60
44027;BME280;29696;55.698;37.460;2023-04-10T07:39:52;100456.47;;;18.12;32.01
44027;BME280;29696;55.698;37.460;2023-04-10T07:42:19;100443.03;;;19.12;30.70
44027;BME280;29696;55.698;37.460;2023-04-10T07:44:45;100451.59;;;20.11;29.32
44027;BME280;29696;55.698;37.460;2023-04-10T07:47:11;100441.75;;;20.49;28.91
44027;BME280;29696;55.698;37.460;2023-04-10T07:49:37;100454.53;;;22.05;26.87
44027;BME280;29696;55.698;37.460;2023-04-10T07:52:04;100444.53;;;23.28;25.13
44027;BME280;29696;55.698;37.460;2023-04-10T07:54:31;100453.19;;;22.95;25.52
44027;BME280;29696;55.698;37.460;2023-04-10T07:56:59;100444.16;;;22.38;25.77
44027;BME280;29696;55.698;37.460;2023-04-10T07:59:26;100458.56;;;22.30;25.88
44027;BME280;29696;55.698;37.460;2023-04-10T08:01:54;100457.72;;;21.64;26.85
44027;BME280;29696;55.698;37.460;2023-04-10T08:04:20;100443.13;;;21.88;26.79
44027;BME280;29696;55.698;37.460;2023-04-10T08:06:46;100449.06;;;21.54;26.94
44027;BME280;29696;55.698;37.460;2023-04-10T08:09:14;100440.13;;;20.94;27.25
44027;BME280;29696;55.698;37.460;2023-04-10T08:11:40;100446.03;;;20.89;27.94
44027;BME280;29696;55.698;37.460;2023-04-10T08:14:07;100446.09;;;20.81;27.41
44027;BME280;29696;55.698;37.460;2023-04-10T08:16:34;100441.50;;;20.13;28.03
44027;BME280;29696;55.698;37.460;2023-04-10T08:19:01;100446.09;;;19.56;28.75
44027;BME280;29696;55.698;37.460;2023-04-10T08:21:28;100443.81;;;19.29;29.61
44027;BME280;29696;55.698;37.460;2023-04-10T08:23:59;100447.38;;;19.05;29.43
44027;BME280;29696;55.698;37.460;2023-04-10T08:26:26;100439.84;;;18.84;29.76
44027;BME280;29696;55.698;37.460;2023-04-10T08:28:55;100448.56;;;18.78;30.22
44027;BME280;29696;55.698;37.460;2023-04-10T08:31:23;100443.97;;;18.29;30.43
44027;BME280;29696;55.698;37.460;2023-04-10T08:33:50;100440.72;;;18.09;31.18
44027;BME280;29696;55.698;37.460;2023-04-10T08:36:17;100444.06;;;17.95;31.44
44027;BME280;29696;55.698;37.460;2023-04-10T08:38:44;100443.44;;;17.75;31.71
44027;BME280;29696;55.698;37.460;2023-04-10T08:41:15;100446.59;;;17.70;31.81
44027;BME280;29696;55.698;37.460;2023-04-10T08:43:42;100441.69;;;17.23;32.19
44027;BME280;29696;55.698;37.460;2023-04-10T08:46:11;100442.81;;;17.21;32.33
44027;BME280;29696;55.698;37.460;2023-04-10T08:48:43;100440.47;;;17.18;32.53
44027;BME280;29696;55.698;37.460;2023-04-10T08:51:16;100438.69;;;17.26;32.63
44027;BME280;29696;55.698;37.460;2023-04-10T08:53:44;100439.63;;;17.17;32.66
44027;BME280;29696;55.698;37.460;2023-04-10T08:56:12;100437.00;;;16.99;33.39
44027;BME280;29696;55.698;37.460;2023-04-10T08:58:41;100429.94;;;17.16;33.52
44027;BME280;29696;55.698;37.460;2023-04-10T09:01:08;100430.00;;;17.24;33.37
44027;BME280;29696;55.698;37.460;2023-04-10T09:03:37;100433.56;;;17.33;33.34
44027;BME280;29696;55.698;37.460;2023-04-10T09:06:04;100438.94;;;17.15;32.82
44027;BME280;29696;55.698;37.460;2023-04-10T09:08:31;100434.38;;;16.81;33.24
44027;BME280;29696;55.698;37.460;2023-04-10T09:10:57;100432.22;;;16.67;33.65
44027;BME280;29696;55.698;37.460;2023-04-10T09:13:53;100432.59;;;16.90;33.44
44027;BME280;29696;55.698;37.460;2023-04-10T09:16:27;100438.69;;;16.64;34.06
44027;BME280;29696;55.698;37.460;2023-04-10T09:18:54;100427.88;;;16.48;34.37
44027;BME280;29696;55.698;37.460;2023-04-10T09:21:21;100430.16;;;16.61;34.35
44027;BME280;29696;55.698;37.460;2023-04-10T09:23:48;100439.09;;;16.70;33.91
44027;BME280;29696;55.698;37.460;2023-04-10T09:26:25;100422.88;;;17.07;33.42
44027;BME280;29696;55.698;37.460;2023-04-10T09:31:49;100428.53;;;17.04;33.01
44027;BME280;29696;55.698;37.460;2023-04-10T09:34:21;100422.34;;;17.03;33.03
44027;BME280;29696;55.698;37.460;2023-04-10T09:36:59;100427.06;;;17.09;33.40
44027;BME280;29696;55.698;37.460;2023-04-10T09:39:37;100423.88;;;17.06;32.83
44027;BME280;29696;55.698;37.460;2023-04-10T09:42:08;100422.53;;;16.66;33.23
44027;BME280;29696;55.698;37.460;2023-04-10T09:44:37;100424.22;;;16.67;33.54
44027;BME280;29696;55.698;37.460;2023-04-10T09:47:32;100430.31;;;16.77;33.53
44027;BME280;29696;55.698;37.460;2023-04-10T09:49:59;100419.81;;;16.22;34.06
44027;BME280;29696;55.698;37.460;2023-04-10T09:52:28;100412.66;;;16.40;34.04
44027;BME280;29696;55.698;37.460;2023-04-10T09:57:43;100422.31;;;16.41;33.68
44027;BME280;29696;55.698;37.460;2023-04-10T10:00:10;100418.66;;;16.25;33.76
44027;BME280;29696;55.698;37.460;2023-04-10T10:02:39;100417.34;;;16.11;34.44
44027;BME280;29696;55.698;37.460;2023-04-10T10:05:07;100419.81;;;16.22;34.69
44027;BME280;29696;55.698;37.460;2023-04-10T10:07:35;100422.84;;;16.27;34.81
44027;BME280;29696;55.698;37.460;2023-04-10T10:10:02;100416.44;;;16.38;34.53
44027;BME280;29696;55.698;37.460;2023-04-10T10:12:35;100423.09;;;16.52;33.70
44027;BME280;29696;55.698;37.460;2023-04-10T10:15:19;100421.41;;;16.51;33.76
44027;BME280;29696;55.698;37.460;2023-04-10T10:18:19;100422.16;;;16.61;33.56
44027;BME280;29696;55.698;37.460;2023-04-10T10:20:49;100422.06;;;15.99;34.55
44027;BME280;29696;55.698;37.460;2023-04-10T10:23:16;100417.22;;;15.85;35.42
44027;BME280;29696;55.698;37.460;2023-04-10T10:25:44;100416.16;;;15.78;35.07
44027;BME280;29696;55.698;37.460;2023-04-10T10:28:12;100414.38;;;15.68;35.35
44027;BME280;29696;55.698;37.460;2023-04-10T10:30:39;100407.66;;;15.55;35.69
44027;BME280;29696;55.698;37.460;2023-04-10T10:33:07;100403.38;;;15.44;35.85
44027;BME280;29696;55.698;37.460;2023-04-10T10:35:35;100415.00;;;15.43;36.19
44027;BME280;29696;55.698;37.460;2023-04-10T10:38:03;100405.88;;;15.45;35.97
44027;BME280;29696;55.698;37.460;2023-04-10T10:44:38;100401.31;;;15.65;36.30
44027;BME280;29696;55.698;37.460;2023-04-10T10:47:38;100398.09;;;15.71;35.95
44027;BME280;29696;55.698;37.460;2023-04-10T10:50:05;100395.47;;;15.52;36.79
44027;BME280;29696;55.698;37.460;2023-04-10T10:52:46;100399.69;;;15.82;36.61
44027;BME280;29696;55.698;37.460;2023-04-10T10:55:46;100396.41;;;15.98;35.88
44027;BME280;29696;55.698;37.460;2023-04-10T10:58:12;100393.75;;;15.70;36.09
44027;BME280;29696;55.698;37.460;2023-04-10T11:01:10;100396.47;;;16.06;36.32
44027;BME280;29696;55.698;37.460;2023-04-10T11:03:37;100394.59;;;15.71;35.56
44027;BME280;29696;55.698;37.460;2023-04-10T11:06:06;100393.69;;;15.52;35.90
44027;BME280;29696;55.698;37.460;2023-04-10T11:08:43;100389.31;;;15.51;36.25
44027;BME280;29696;55.698;37.460;2023-04-10T11:11:15;100389.63;;;15.48;36.14
44027;BME280;29696;55.698;37.460;2023-04-10T11:16:51;100380.72;;;15.58;36.20
44027;BME280;29696;55.698;37.460;2023-04-10T11:19:17;100381.44;;;15.87;36.00
44027;BME280;29696;55.698;37.460;2023-04-10T11:22:18;100387.72;;;16.14;35.60
44027;BME280;29696;55.698;37.460;2023-04-10T11:24:52;100376.34;;;15.94;35.64
44027;BME280;29696;55.698;37.460;2023-04-10T11:27:42;100389.03;;;16.10;36.16
44027;BME280;29696;55.698;37.460;2023-04-10T11:30:31;100381.31;;;16.07;35.48
44027;BME280;29696;55.698;37.460;2023-04-10T11:32:59;100375.28;;;15.87;35.25
44027;BME280;29696;55.698;37.460;2023-04-10T11:35:26;100375.72;;;15.82;35.19
44027;BME280;29696;55.698;37.460;2023-04-10T11:38:13;100377.78;;;15.88;36.02
44027;BME280;29696;55.698;37.460;2023-04-10T11:41:01;100374.50;;;15.67;35.89
44027;BME280;29696;55.698;37.460;2023-04-10T11:43:30;100380.56;;;15.41;36.25
44027;BME280;29696;55.698;37.460;2023-04-10T11:46:01;100377.34;;;15.38;36.58
44027;BME280;29696;55.698;37.460;2023-04-10T11:48:28;100378.59;;;15.34;37.01
44027;BME280;29696;55.698;37.460;2023-04-10T11:50:54;100372.03;;;15.28;37.07
44027;BME280;29696;55.698;37.460;2023-04-10T11:53:21;100372.09;;;15.18;37.29
44027;BME280;29696;55.698;37.460;2023-04-10T11:55:47;100375.03;;;15.15;36.66
44027;BME280;29696;55.698;37.460;2023-04-10T11:58:28;100374.69;;;15.28;36.35
44027;BME280;29696;55.698;37.460;2023-04-10T12:01:03;100373.38;;;15.14;36.61
44027;BME280;29696;55.698;37.460;2023-04-10T12:03:49;100371.66;;;15.13;36.65
44027;BME280;29696;55.698;37.460;2023-04-10T12:06:16;100371.31;;;14.89;36.38
44027;BME280;29696;55.698;37.460;2023-04-10T12:08:46;100368.38;;;14.92;37.41
44027;BME280;29696;55.698;37.460;2023-04-10T12:11:17;100371.19;;;14.90;37.65
44027;BME280;29696;55.698;37.460;2023-04-10T12:13:46;100360.56;;;14.80;37.47
44027;BME280;29696;55.698;37.460;2023-04-10T12:16:15;100362.25;;;14.81;37.96
44027;BME280;29696;55.698;37.460;2023-04-10T12:18:42;100363.09;;;14.82;38.17
44027;BME280;29696;55.698;37.460;2023-04-10T12:21:10;100356.22;;;14.79;38.59
44027;BME280;29696;55.698;37.460;2023-04-10T12:23:37;100357.59;;;14.83;39.13
44027;BME280;29696;55.698;37.460;2023-04-10T12:26:17;100356.63;;;14.94;38.62
44027;BME280;29696;55.698;37.460;2023-04-10T12:28:54;100359.84;;;14.88;38.52
44027;BME280;29696;55.698;37.460;2023-04-10T12:31:29;100357.47;;;14.85;38.64
44027;BME280;29696;55.698;37.460;2023-04-10T12:33:57;100348.28;;;14.70;37.81
44027;BME280;29696;55.698;37.460;2023-04-10T12:36:25;100344.06;;;14.67;38.35
44027;BME280;29696;55.698;37.460;2023-04-10T12:38:56;100346.88;;;14.66;38.91
44027;BME280;29696;55.698;37.460;2023-04-10T12:41:24;100354.44;;;14.51;38.92
44027;BME280;29696;55.698;37.460;2023-04-10T12:43:52;100353.03;;;14.37;39.87
44027;BME280;29696;55.698;37.460;2023-04-10T12:46:27;100353.59;;;14.31;40.82
44027;BME280;29696;55.698;37.460;2023-04-10T12:48:55;100362.69;;;13.99;40.96
44027;BME280;29696;55.698;37.460;2023-04-10T12:51:40;100367.59;;;14.04;42.06
44027;BME280;29696;55.698;37.460;2023-04-10T12:54:06;100373.50;;;13.57;41.77
44027;BME280;29696;55.698;37.460;2023-04-10T12:56:41;100379.22;;;13.53;42.71
44027;BME280;29696;55.698;37.460;2023-04-10T12:59:08;100367.84;;;13.31;42.90
44027;BME280;29696;55.698;37.460;2023-04-10T13:01:37;100376.66;;;13.32;43.94
44027;BME280;29696;55.698;37.460;2023-04-10T13:04:04;100371.47;;;13.09;43.44
44027;BME280;29696;55.698;37.460;2023-04-10T13:06:30;100365.13;;;13.00;44.67
44027;BME280;29696;55.698;37.460;2023-04-10T13:08:56;100351.44;;;12.95;43.05
44027;BME280;29696;55.698;37.460;2023-04-10T13:11:22;100358.81;;;12.92;44.05
44027;BME280;29696;55.698;37.460;2023-04-10T13:13:49;100359.84;;;12.79;46.84
44027;BME280;29696;55.698;37.460;2023-04-10T13:16:17;100348.63;;;12.66;46.43
44027;BME280;29696;55.698;37.460;2023-04-10T13:18:43;100351.47;;;12.53;46.43
44027;BME280;29696;55.698;37.460;2023-04-10T13:21:10;100333.09;;;12.41;46.98
44027;BME280;29696;55.698;37.460;2023-04-10T13:23:36;100334.06;;;12.40;46.43
44027;BME280;29696;55.698;37.460;2023-04-10T13:26:02;100340.09;;;12.42;47.85
44027;BME280;29696;55.698;37.460;2023-04-10T13:28:29;100330.31;;;12.42;46.68